createdAt,value
2017-08-14T00:00:37.436Z,5.8
2017-08-14T00:01:40.272Z,5.7
2017-08-14T00:02:42.760Z,5.7
2017-08-14T00:03:45.614Z,5.7
2017-08-14T00:04:48.442Z,5.8
2017-08-14T00:05:51.250Z,5.7
2017-08-14T00:06:54.095Z,5.7
2017-08-14T00:07:57.172Z,5.7
2017-08-14T00:09:00.004Z,5.8
2017-08-14T00:10:03.169Z,5.8
2017-08-14T00:11:06.010Z,5.8
2017-08-14T00:12:08.839Z,5.8
2017-08-14T00:13:12.025Z,5.8
2017-08-14T00:14:14.542Z,5.8
2017-08-14T00:15:17.019Z,5.8
2017-08-14T00:16:19.842Z,5.8
2017-08-14T00:17:22.664Z,5.7
2017-08-14T00:18:25.166Z,5.8
2017-08-14T00:19:27.658Z,5.8
2017-08-14T00:20:30.162Z,5.7
2017-08-14T00:21:32.644Z,5.7
2017-08-14T00:22:35.824Z,5.8
2017-08-14T00:23:38.296Z,5.8
2017-08-14T00:24:40.898Z,5.8
2017-08-14T00:25:43.385Z,5.8
2017-08-14T00:26:45.867Z,5.8
2017-08-14T00:27:48.688Z,5.7
2017-08-14T00:28:51.178Z,5.8
2017-08-14T00:29:53.666Z,5.8
2017-08-14T00:30:56.144Z,5.8
2017-08-14T00:31:58.643Z,5.8
2017-08-14T00:33:01.142Z,5.7
2017-08-14T00:34:04.304Z,5.8
2017-08-14T00:35:06.809Z,5.8
2017-08-14T00:36:09.305Z,5.8
2017-08-14T00:37:11.783Z,5.7
2017-08-14T00:38:14.619Z,5.6
2017-08-14T00:39:17.461Z,5.7
2017-08-14T00:40:19.948Z,5.8
2017-08-14T00:41:22.451Z,5.8
2017-08-14T00:42:25.273Z,5.7
2017-08-14T00:43:28.106Z,5.8
2017-08-14T00:44:30.599Z,5.8
2017-08-14T00:45:33.456Z,5.7
2017-08-14T00:46:35.928Z,5.8
2017-08-14T00:47:38.456Z,5.8
2017-08-14T00:48:40.951Z,5.7
2017-08-14T00:49:43.784Z,5.8
2017-08-14T00:50:46.607Z,5.7
2017-08-14T00:51:49.087Z,5.8
2017-08-14T00:52:52.286Z,5.8
2017-08-14T00:53:55.132Z,5.7
2017-08-14T00:54:57.625Z,5.7
2017-08-14T00:56:00.128Z,5.7
2017-08-14T00:57:02.629Z,5.8
2017-08-14T00:58:05.484Z,5.7
2017-08-14T00:59:08.319Z,5.8
2017-08-14T01:00:10.819Z,5.7
2017-08-14T01:01:13.295Z,5.7
2017-08-14T01:02:16.148Z,5.8
2017-08-14T01:03:18.631Z,5.7
2017-08-14T01:04:21.128Z,5.7
2017-08-14T01:05:23.611Z,5.7
2017-08-14T01:06:26.098Z,5.6
2017-08-14T01:07:28.600Z,5.8
2017-08-14T01:08:31.092Z,5.6
2017-08-14T01:09:33.586Z,5.6
2017-08-14T01:10:36.103Z,5.7
2017-08-14T01:11:38.592Z,5.7
2017-08-14T01:12:41.085Z,5.7
2017-08-14T01:13:43.927Z,5.6
2017-08-14T01:14:46.735Z,5.7
2017-08-14T01:15:49.562Z,5.7
2017-08-14T01:16:52.056Z,5.7
2017-08-14T01:17:54.885Z,5.7
2017-08-14T01:18:57.715Z,5.7
2017-08-14T01:20:00.545Z,5.6
2017-08-14T01:21:03.041Z,5.6
2017-08-14T01:22:05.539Z,5.7
2017-08-14T01:23:08.032Z,5.7
2017-08-14T01:24:10.527Z,5.7
2017-08-14T01:25:13.008Z,5.7
2017-08-14T01:26:15.510Z,5.7
2017-08-14T01:27:17.991Z,5.6
2017-08-14T01:28:20.833Z,5.7
2017-08-14T01:29:23.309Z,5.6
2017-08-14T01:30:25.806Z,5.7
2017-08-14T01:31:28.642Z,5.6
2017-08-14T01:32:31.469Z,5.7
2017-08-14T01:33:33.953Z,5.7
2017-08-14T01:34:36.804Z,5.6
2017-08-14T01:35:39.624Z,5.7
2017-08-14T01:36:42.139Z,5.6
2017-08-14T01:37:44.951Z,5.6
2017-08-14T01:38:48.116Z,5.6
2017-08-14T01:39:50.593Z,5.7
2017-08-14T01:40:53.069Z,5.7
2017-08-14T01:41:55.909Z,5.7
2017-08-14T01:42:58.411Z,5.6
2017-08-14T01:44:00.906Z,5.7
2017-08-14T01:45:03.733Z,5.6
2017-08-14T01:46:06.579Z,5.6
2017-08-14T01:47:09.064Z,5.7
2017-08-14T01:48:11.890Z,5.7
2017-08-14T01:49:14.371Z,5.6
2017-08-14T01:50:16.848Z,5.6
2017-08-14T01:51:19.341Z,5.7
2017-08-14T01:52:21.826Z,5.7
2017-08-14T01:53:24.645Z,5.6
2017-08-14T01:54:27.143Z,5.6
2017-08-14T01:55:29.960Z,5.7
2017-08-14T01:56:32.449Z,5.6
2017-08-14T01:57:34.936Z,5.7
2017-08-14T01:58:37.762Z,5.7
2017-08-14T01:59:40.598Z,5.6
2017-08-14T02:00:43.416Z,5.6
2017-08-14T02:01:45.907Z,5.6
2017-08-14T02:02:48.386Z,5.7
2017-08-14T02:03:51.242Z,5.6
2017-08-14T02:04:53.739Z,5.7
2017-08-14T02:05:56.221Z,5.6
2017-08-14T02:06:58.703Z,5.6
2017-08-14T02:08:01.217Z,5.6
2017-08-14T02:09:04.392Z,5.6
2017-08-14T02:10:07.190Z,5.6
2017-08-14T02:11:09.695Z,5.6
2017-08-14T02:12:12.175Z,5.6
2017-08-14T02:13:15.006Z,5.7
2017-08-14T02:14:17.831Z,5.6
2017-08-14T02:15:20.311Z,5.6
2017-08-14T02:16:23.129Z,5.6
2017-08-14T02:17:25.626Z,5.6
2017-08-14T02:18:28.102Z,5.7
2017-08-14T02:19:30.588Z,5.7
2017-08-14T02:20:33.078Z,5.6
2017-08-14T02:21:35.912Z,5.6
2017-08-14T02:22:38.392Z,5.6
2017-08-14T02:23:41.557Z,5.6
2017-08-14T02:24:44.390Z,5.6
2017-08-14T02:25:46.873Z,5.6
2017-08-14T02:26:49.740Z,5.6
2017-08-14T02:27:52.562Z,5.6
2017-08-14T02:28:55.083Z,5.6
2017-08-14T02:29:57.903Z,5.6
2017-08-14T02:31:00.387Z,5.6
2017-08-14T02:32:03.932Z,5.6
2017-08-14T02:33:06.431Z,5.6
2017-08-14T02:34:08.937Z,5.6
2017-08-14T02:35:11.425Z,5.7
2017-08-14T02:36:13.945Z,5.6
2017-08-14T02:37:16.773Z,5.6
2017-08-14T02:38:19.603Z,5.6
2017-08-14T02:39:22.084Z,5.6
2017-08-14T02:40:24.591Z,5.6
2017-08-14T02:41:27.407Z,5.6
2017-08-14T02:42:29.896Z,5.6
2017-08-14T02:43:32.394Z,5.6
2017-08-14T02:44:34.893Z,5.6
2017-08-14T02:45:37.725Z,5.6
2017-08-14T02:46:40.556Z,5.6
2017-08-14T02:47:43.039Z,5.6
2017-08-14T02:48:46.551Z,5.5
2017-08-14T02:49:49.368Z,5.6
2017-08-14T02:50:52.209Z,5.5
2017-08-14T02:51:55.719Z,5.5
2017-08-14T02:52:58.564Z,5.5
2017-08-14T02:54:01.057Z,5.6
2017-08-14T02:55:03.896Z,5.6
2017-08-14T02:56:06.381Z,5.6
2017-08-14T02:57:08.864Z,5.6
2017-08-14T02:58:11.352Z,5.5
2017-08-14T02:59:14.196Z,5.5
2017-08-14T03:00:16.677Z,5.6
2017-08-14T03:01:19.174Z,5.6
2017-08-14T03:02:21.640Z,5.6
2017-08-14T03:03:24.460Z,5.6
2017-08-14T03:04:27.300Z,5.6
2017-08-14T03:05:29.775Z,5.5
2017-08-14T03:06:32.261Z,5.6
2017-08-14T03:07:35.092Z,5.5
2017-08-14T03:08:37.597Z,5.5
2017-08-14T03:09:40.058Z,5.5
2017-08-14T03:10:42.892Z,5.5
2017-08-14T03:11:45.734Z,5.6
2017-08-14T03:12:48.225Z,5.5
2017-08-14T03:13:50.720Z,5.6
2017-08-14T03:14:53.553Z,5.6
2017-08-14T03:15:56.035Z,5.6
2017-08-14T03:16:58.548Z,5.6
2017-08-14T03:18:01.733Z,5.6
2017-08-14T03:19:04.913Z,5.5
2017-08-14T03:20:07.407Z,5.5
2017-08-14T03:21:09.881Z,5.6
2017-08-14T03:22:12.377Z,5.5
2017-08-14T03:23:14.859Z,5.5
2017-08-14T03:24:17.341Z,5.5
2017-08-14T03:25:19.819Z,5.6
2017-08-14T03:26:22.334Z,5.6
2017-08-14T03:27:24.801Z,5.5
2017-08-14T03:28:27.321Z,5.5
2017-08-14T03:29:29.800Z,5.5
2017-08-14T03:30:32.313Z,5.6
2017-08-14T03:31:35.156Z,5.5
2017-08-14T03:32:37.652Z,5.5
2017-08-14T03:33:40.804Z,5.5
2017-08-14T03:34:43.644Z,5.5
2017-08-14T03:35:46.129Z,5.6
2017-08-14T03:36:48.624Z,5.5
2017-08-14T03:37:51.104Z,5.6
2017-08-14T03:38:53.935Z,5.6
2017-08-14T03:39:56.427Z,5.5
2017-08-14T03:40:58.905Z,5.5
2017-08-14T03:42:01.402Z,5.5
2017-08-14T03:43:03.887Z,5.6
2017-08-14T03:44:06.360Z,5.5
2017-08-14T03:45:08.877Z,5.6
2017-08-14T03:46:11.702Z,5.5
2017-08-14T03:47:14.519Z,5.5
2017-08-14T03:48:17.012Z,5.5
2017-08-14T03:49:19.833Z,5.5
2017-08-14T03:50:22.649Z,5.5
2017-08-14T03:51:25.142Z,5.5
2017-08-14T03:52:27.960Z,5.6
2017-08-14T03:53:30.771Z,5.5
2017-08-14T03:54:33.260Z,5.5
2017-08-14T03:55:35.744Z,5.6
2017-08-14T03:56:38.571Z,5.5
2017-08-14T03:57:41.102Z,5.5
2017-08-14T03:58:43.574Z,5.5
2017-08-14T03:59:46.442Z,5.5
2017-08-14T04:00:48.928Z,5.5
2017-08-14T04:01:51.752Z,5.5
2017-08-14T04:02:54.235Z,5.5
2017-08-14T04:03:56.721Z,5.5
2017-08-14T04:04:59.546Z,5.5
2017-08-14T04:06:02.041Z,5.5
2017-08-14T04:07:04.856Z,5.5
2017-08-14T04:08:07.354Z,5.5
2017-08-14T04:09:10.151Z,5.5
2017-08-14T04:10:12.648Z,5.5
2017-08-14T04:11:15.484Z,5.5
2017-08-14T04:12:17.971Z,5.5
2017-08-14T04:13:20.447Z,5.5
2017-08-14T04:14:22.922Z,5.5
2017-08-14T04:15:25.398Z,5.5
2017-08-14T04:16:27.893Z,5.4
2017-08-14T04:17:30.379Z,5.5
2017-08-14T04:18:33.194Z,5.5
2017-08-14T04:19:35.681Z,5.5
2017-08-14T04:20:38.161Z,5.5
2017-08-14T04:21:40.644Z,5.5
2017-08-14T04:22:43.132Z,5.5
2017-08-14T04:23:45.614Z,5.5
2017-08-14T04:24:48.449Z,5.5
2017-08-14T04:25:50.942Z,5.5
2017-08-14T04:26:53.759Z,5.5
2017-08-14T04:27:56.244Z,5.5
2017-08-14T04:28:59.061Z,5.5
2017-08-14T04:30:01.550Z,5.5
2017-08-14T04:31:04.051Z,5.5
2017-08-14T04:32:06.557Z,5.5
2017-08-14T04:33:09.019Z,5.6
2017-08-14T04:34:11.493Z,5.5
2017-08-14T04:35:14.002Z,5.5
2017-08-14T04:36:16.837Z,5.5
2017-08-14T04:37:19.657Z,5.5
2017-08-14T04:38:22.135Z,5.5
2017-08-14T04:39:24.616Z,5.5
2017-08-14T04:40:27.088Z,5.4
2017-08-14T04:41:29.585Z,5.5
2017-08-14T04:42:32.060Z,5.5
2017-08-14T04:43:35.240Z,5.5
2017-08-14T04:44:37.731Z,5.5
2017-08-14T04:45:40.244Z,5.5
2017-08-14T04:46:42.747Z,5.5
2017-08-14T04:47:45.588Z,5.5
2017-08-14T04:48:48.408Z,5.5
2017-08-14T04:49:50.902Z,5.5
2017-08-14T04:50:53.380Z,5.6
2017-08-14T04:51:55.862Z,5.5
2017-08-14T04:52:58.344Z,5.5
2017-08-14T04:54:00.823Z,5.5
2017-08-14T04:55:03.650Z,5.5
2017-08-14T04:56:06.153Z,5.5
2017-08-14T04:57:08.625Z,5.5
2017-08-14T04:58:11.111Z,5.5
2017-08-14T04:59:13.603Z,5.5
2017-08-14T05:00:16.093Z,5.5
2017-08-14T05:01:18.573Z,5.5
2017-08-14T05:02:21.087Z,5.5
2017-08-14T05:03:23.566Z,5.5
2017-08-14T05:04:26.392Z,5.5
2017-08-14T05:05:29.211Z,5.5
2017-08-14T05:06:31.730Z,5.5
2017-08-14T05:07:34.554Z,5.5
2017-08-14T05:08:37.386Z,5.5
2017-08-14T05:09:40.226Z,5.5
2017-08-14T05:10:42.710Z,5.5
2017-08-14T05:11:45.205Z,5.6
2017-08-14T05:12:48.723Z,5.6
2017-08-14T05:13:51.204Z,5.6
2017-08-14T05:14:53.704Z,5.5
2017-08-14T05:15:56.193Z,5.7
2017-08-14T05:16:58.672Z,5.6
2017-08-14T05:18:01.159Z,5.6
2017-08-14T05:19:03.636Z,5.5
2017-08-14T05:20:06.452Z,5.6
2017-08-14T05:21:08.956Z,5.7
2017-08-14T05:22:11.788Z,5.6
2017-08-14T05:23:14.603Z,5.6
2017-08-14T05:24:17.099Z,5.6
2017-08-14T05:25:19.595Z,5.6
2017-08-14T05:26:22.420Z,5.6
2017-08-14T05:27:24.915Z,5.6
2017-08-14T05:28:27.401Z,5.6
2017-08-14T05:29:29.888Z,5.6
2017-08-14T05:30:32.730Z,5.6
2017-08-14T05:31:35.202Z,5.6
2017-08-14T05:32:37.709Z,5.6
2017-08-14T05:33:40.542Z,5.6
2017-08-14T05:34:43.717Z,5.7
2017-08-14T05:35:46.203Z,5.6
2017-08-14T05:36:49.375Z,5.7
2017-08-14T05:37:51.866Z,5.6
2017-08-14T05:38:54.686Z,5.6
2017-08-14T05:39:57.535Z,5.7
2017-08-14T05:41:00.681Z,5.7
2017-08-14T05:42:03.519Z,5.6
2017-08-14T05:43:06.011Z,5.6
2017-08-14T05:44:08.502Z,5.7
2017-08-14T05:45:10.988Z,5.6
2017-08-14T05:46:13.476Z,5.7
2017-08-14T05:47:16.286Z,5.7
2017-08-14T05:48:18.792Z,5.5
2017-08-14T05:49:21.287Z,5.4
2017-08-14T05:50:23.772Z,5.4
2017-08-14T05:51:26.610Z,5.4
2017-08-14T05:52:29.097Z,5.4
2017-08-14T05:53:31.582Z,5.4
2017-08-14T05:54:34.097Z,5.5
2017-08-14T05:55:36.566Z,5.5
2017-08-14T05:56:39.056Z,5.4
2017-08-14T05:57:41.533Z,5.5
2017-08-14T05:58:44.013Z,5.5
2017-08-14T05:59:46.844Z,5.5
2017-08-14T06:00:49.340Z,5.5
2017-08-14T06:01:51.814Z,5.5
2017-08-14T06:02:54.663Z,5.5
2017-08-14T06:03:57.156Z,5.5
2017-08-14T06:05:00.014Z,5.5
2017-08-14T06:06:02.848Z,5.6
2017-08-14T06:07:05.334Z,5.6
2017-08-14T06:08:08.175Z,5.5
2017-08-14T06:09:10.659Z,5.5
2017-08-14T06:10:13.481Z,5.6
2017-08-14T06:11:16.692Z,5.6
2017-08-14T06:12:19.176Z,5.5
2017-08-14T06:13:21.689Z,5.6
2017-08-14T06:14:24.526Z,5.6
2017-08-14T06:15:26.992Z,5.6
2017-08-14T06:16:30.158Z,5.7
2017-08-14T06:17:32.987Z,5.6
2017-08-14T06:18:35.477Z,5.6
2017-08-14T06:19:37.968Z,5.6
2017-08-14T06:20:40.433Z,5.7
2017-08-14T06:21:42.926Z,5.6
2017-08-14T06:22:45.428Z,5.6
2017-08-14T06:23:48.260Z,5.7
2017-08-14T06:24:50.752Z,5.6
2017-08-14T06:25:53.242Z,5.7
2017-08-14T06:26:55.744Z,5.7
2017-08-14T06:27:58.581Z,5.7
2017-08-14T06:29:01.076Z,5.7
2017-08-14T06:30:04.239Z,5.7
2017-08-14T06:31:07.077Z,5.7
2017-08-14T06:32:10.630Z,5.7
2017-08-14T06:33:13.452Z,5.7
2017-08-14T06:34:16.621Z,5.8
2017-08-14T06:35:19.448Z,5.7
2017-08-14T06:36:22.621Z,5.7
2017-08-14T06:37:25.442Z,5.7
2017-08-14T06:38:28.288Z,5.7
2017-08-14T06:39:30.778Z,5.7
2017-08-14T06:40:33.259Z,5.7
2017-08-14T06:41:36.450Z,5.7
2017-08-14T06:42:38.943Z,5.7
2017-08-14T06:43:42.115Z,5.7
2017-08-14T06:44:44.596Z,5.7
2017-08-14T06:45:47.075Z,5.7
2017-08-14T06:46:49.906Z,5.8
2017-08-14T06:47:52.403Z,5.7
2017-08-14T06:48:54.902Z,5.8
2017-08-14T06:49:57.728Z,6
2017-08-14T06:51:00.935Z,5.8
2017-08-14T06:52:03.755Z,5.8
2017-08-14T06:53:06.279Z,5.8
2017-08-14T06:54:08.776Z,5.8
2017-08-14T06:55:11.595Z,5.8
2017-08-14T06:56:14.098Z,5.8
2017-08-14T06:57:16.594Z,5.8
2017-08-14T06:58:19.076Z,5.8
2017-08-14T06:59:21.920Z,5.8
2017-08-14T07:00:24.410Z,5.8
2017-08-14T07:01:26.898Z,5.8
2017-08-14T07:02:29.714Z,5.8
2017-08-14T07:03:32.559Z,5.8
2017-08-14T07:04:35.055Z,5.7
2017-08-14T07:05:37.876Z,5.9
2017-08-14T07:06:40.371Z,5.9
2017-08-14T07:07:43.553Z,5.8
2017-08-14T07:08:46.043Z,5.9
2017-08-14T07:09:48.530Z,5.8
2017-08-14T07:10:51.346Z,5.8
2017-08-14T07:11:53.837Z,5.9
2017-08-14T07:12:56.345Z,5.9
2017-08-14T07:13:58.822Z,5.9
2017-08-14T07:15:01.983Z,5.9
2017-08-14T07:16:04.834Z,5.9
2017-08-14T07:17:07.673Z,5.8
2017-08-14T07:18:10.184Z,5.8
2017-08-14T07:19:13.017Z,5.9
2017-08-14T07:20:15.488Z,5.9
2017-08-14T07:21:18.006Z,5.9
2017-08-14T07:22:20.493Z,5.9
2017-08-14T07:23:22.983Z,5.9
2017-08-14T07:24:25.467Z,5.9
2017-08-14T07:25:28.285Z,5.9
2017-08-14T07:26:30.794Z,5.9
2017-08-14T07:27:33.302Z,5.9
2017-08-14T07:28:35.787Z,6
2017-08-14T07:29:38.270Z,5.9
2017-08-14T07:30:40.807Z,6
2017-08-14T07:31:43.649Z,5.9
2017-08-14T07:32:46.476Z,6
2017-08-14T07:33:50.000Z,5.9
2017-08-14T07:34:52.489Z,6
2017-08-14T07:35:54.963Z,5.9
2017-08-14T07:36:58.164Z,6
2017-08-14T07:38:00.671Z,5.9
2017-08-14T07:39:04.527Z,6
2017-08-14T07:40:07.385Z,6
2017-08-14T07:41:10.209Z,6
2017-08-14T07:42:12.691Z,6
2017-08-14T07:43:15.204Z,6
2017-08-14T07:44:17.679Z,6
2017-08-14T07:45:20.179Z,6
2017-08-14T07:46:22.685Z,6
2017-08-14T07:47:25.509Z,6
2017-08-14T07:48:28.354Z,6
2017-08-14T07:49:30.843Z,6
2017-08-14T07:50:33.680Z,6
2017-08-14T07:51:36.179Z,6
2017-08-14T07:52:38.671Z,6
2017-08-14T07:53:41.497Z,6
2017-08-14T07:54:44.357Z,6.1
2017-08-14T07:55:47.524Z,6.1
2017-08-14T07:56:50.366Z,6.1
2017-08-14T07:57:52.857Z,6.1
2017-08-14T07:58:55.363Z,6.1
2017-08-14T07:59:58.882Z,6.1
2017-08-14T08:01:01.734Z,6.1
2017-08-14T08:02:04.237Z,6.1
2017-08-14T08:03:06.743Z,6.1
2017-08-14T08:04:09.912Z,6.1
2017-08-14T08:05:12.418Z,6.1
2017-08-14T08:06:14.912Z,6.2
2017-08-14T08:07:18.078Z,6.1
2017-08-14T08:08:20.598Z,6.2
2017-08-14T08:09:23.094Z,6.1
2017-08-14T08:10:25.924Z,6.2
2017-08-14T08:11:28.757Z,6.1
2017-08-14T08:12:31.242Z,6.1
2017-08-14T08:13:33.734Z,6.1
2017-08-14T08:14:36.239Z,6.1
2017-08-14T08:15:39.064Z,6.1
2017-08-14T08:16:41.603Z,6.2
2017-08-14T08:17:44.433Z,6.1
2017-08-14T08:18:46.927Z,6.1
2017-08-14T08:19:49.795Z,6.1
2017-08-14T08:20:52.302Z,6.2
2017-08-14T08:21:54.792Z,6.1
2017-08-14T08:22:57.297Z,6.1
2017-08-14T08:24:00.158Z,6.1
2017-08-14T08:25:03.096Z,6.1
2017-08-14T08:26:05.939Z,6.2
2017-08-14T08:27:08.750Z,6.1
2017-08-14T08:28:11.247Z,6.1
2017-08-14T08:29:14.117Z,6.1
2017-08-14T08:30:16.614Z,6.1
2017-08-14T08:31:19.138Z,6.2
2017-08-14T08:32:22.323Z,6.2
2017-08-14T08:33:24.844Z,6.2
2017-08-14T08:34:27.650Z,6.1
2017-08-14T08:35:30.143Z,6.2
2017-08-14T08:36:32.639Z,6.1
2017-08-14T08:37:35.143Z,6.2
2017-08-14T08:38:38.349Z,6.2
2017-08-14T08:39:41.181Z,6.1
2017-08-14T08:40:43.683Z,6.2
2017-08-14T08:41:46.534Z,6.2
2017-08-14T08:42:49.366Z,6.2
2017-08-14T08:43:51.850Z,6.2
2017-08-14T08:44:54.345Z,6.2
2017-08-14T08:45:56.851Z,6.2
2017-08-14T08:46:59.687Z,6.2
2017-08-14T08:48:02.895Z,6.2
2017-08-14T08:49:05.398Z,6.3
2017-08-14T08:50:07.899Z,6.2
2017-08-14T08:51:10.408Z,6.2
2017-08-14T08:52:12.912Z,6.3
2017-08-14T08:53:16.435Z,6.3
2017-08-14T08:54:19.284Z,6.3
2017-08-14T08:55:21.814Z,6.3
2017-08-14T08:56:24.315Z,6.3
2017-08-14T08:57:27.144Z,6.3
2017-08-14T08:58:29.642Z,6.3
2017-08-14T08:59:32.169Z,6.3
2017-08-14T09:00:34.681Z,6.3
2017-08-14T09:01:37.178Z,6.3
2017-08-14T09:02:40.360Z,6.4
2017-08-14T09:03:43.876Z,6.4
2017-08-14T09:04:46.372Z,6.4
2017-08-14T09:05:48.863Z,6.4
2017-08-14T09:06:51.369Z,6.3
2017-08-14T09:07:54.225Z,6.3
2017-08-14T09:08:57.725Z,6.4
2017-08-14T09:10:00.580Z,6.3
2017-08-14T09:11:03.768Z,6.4
2017-08-14T09:12:06.602Z,6.5
2017-08-14T09:13:09.445Z,6.4
2017-08-14T09:14:12.304Z,6.4
2017-08-14T09:15:14.801Z,6.5
2017-08-14T09:16:17.330Z,6.5
2017-08-14T09:17:19.817Z,6.5
2017-08-14T09:18:22.324Z,6.4
2017-08-14T09:19:25.870Z,6.5
2017-08-14T09:20:28.365Z,6.5
2017-08-14T09:21:31.215Z,6.5
2017-08-14T09:22:33.727Z,6.5
2017-08-14T09:23:37.263Z,6.5
2017-08-14T09:24:39.780Z,6.6
2017-08-14T09:25:42.296Z,6.5
2017-08-14T09:26:45.811Z,6.6
2017-08-14T09:27:49.024Z,6.6
2017-08-14T09:28:52.228Z,6.6
2017-08-14T09:29:54.745Z,6.6
2017-08-14T09:30:57.247Z,6.6
2017-08-14T09:31:59.760Z,6.6
2017-08-14T09:33:02.644Z,6.6
2017-08-14T09:34:05.865Z,6.7
2017-08-14T09:35:08.706Z,6.6
2017-08-14T09:36:11.545Z,6.6
2017-08-14T09:37:14.742Z,6.6
2017-08-14T09:38:17.585Z,6.6
2017-08-14T09:39:20.132Z,6.6
2017-08-14T09:40:22.646Z,6.6
2017-08-14T09:41:25.136Z,6.7
2017-08-14T09:42:28.329Z,6.6
2017-08-14T09:43:31.196Z,6.6
2017-08-14T09:44:34.037Z,6.6
2017-08-14T09:45:36.912Z,6.6
2017-08-14T09:46:39.429Z,6.6
2017-08-14T09:47:41.933Z,6.6
2017-08-14T09:48:44.792Z,6.6
2017-08-14T09:49:47.661Z,6.6
2017-08-14T09:50:50.152Z,6.6
2017-08-14T09:51:53.063Z,6.6
2017-08-14T09:52:55.933Z,6.5
2017-08-14T09:53:59.112Z,6.6
2017-08-14T09:55:01.637Z,6.6
2017-08-14T09:56:04.820Z,6.6
2017-08-14T09:57:07.328Z,6.6
2017-08-14T09:58:10.189Z,6.6
2017-08-14T09:59:13.047Z,6.6
2017-08-14T10:00:15.563Z,6.6
2017-08-14T10:01:18.410Z,6.6
2017-08-14T10:02:20.924Z,6.6
2017-08-14T10:03:23.427Z,6.6
2017-08-14T10:04:25.941Z,6.6
2017-08-14T10:05:28.472Z,6.6
2017-08-14T10:06:31.668Z,6.6
2017-08-14T10:07:34.511Z,6.6
2017-08-14T10:08:37.391Z,6.6
2017-08-14T10:09:39.897Z,6.6
2017-08-14T10:10:42.407Z,6.6
2017-08-14T10:11:44.930Z,6.6
2017-08-14T10:12:47.771Z,6.6
2017-08-14T10:13:50.276Z,6.6
2017-08-14T10:14:53.838Z,6.6
2017-08-14T10:15:56.702Z,6.6
2017-08-14T10:16:59.579Z,6.6
2017-08-14T10:18:03.113Z,6.6
2017-08-14T10:19:05.953Z,6.5
2017-08-14T10:20:09.156Z,6.6
2017-08-14T10:21:12.019Z,6.6
2017-08-14T10:22:14.857Z,6.6
2017-08-14T10:23:17.370Z,6.6
2017-08-14T10:24:20.558Z,6.6
2017-08-14T10:25:23.419Z,6.6
2017-08-14T10:26:26.286Z,6.5
2017-08-14T10:27:28.814Z,6.6
2017-08-14T10:28:31.663Z,6.6
2017-08-14T10:29:34.173Z,6.6
2017-08-14T10:30:37.384Z,6.5
2017-08-14T10:31:40.221Z,6.6
2017-08-14T10:32:42.732Z,6.6
2017-08-14T10:33:45.592Z,6.5
2017-08-14T10:34:48.802Z,6.6
2017-08-14T10:35:51.654Z,6.5
2017-08-14T10:36:54.514Z,6.6
2017-08-14T10:37:57.365Z,6.6
2017-08-14T10:39:00.226Z,6.6
2017-08-14T10:40:03.063Z,6.6
2017-08-14T10:41:05.892Z,6.6
2017-08-14T10:42:08.417Z,6.6
2017-08-14T10:43:10.930Z,6.6
2017-08-14T10:44:13.435Z,6.6
2017-08-14T10:45:15.941Z,6.6
2017-08-14T10:46:18.464Z,6.6
2017-08-14T10:47:22.337Z,6.6
2017-08-14T10:48:25.196Z,6.7
2017-08-14T10:49:27.712Z,6.7
2017-08-14T10:50:30.226Z,6.7
2017-08-14T10:51:32.724Z,6.7
2017-08-14T10:52:35.591Z,6.7
2017-08-14T10:53:38.777Z,6.7
2017-08-14T10:54:41.619Z,6.7
2017-08-14T10:55:44.799Z,6.7
2017-08-14T10:56:47.322Z,6.7
2017-08-14T10:57:49.832Z,6.7
2017-08-14T10:58:52.350Z,6.7
2017-08-14T10:59:55.212Z,6.7
2017-08-14T11:00:57.732Z,6.7
2017-08-14T11:02:00.581Z,6.7
2017-08-14T11:03:03.450Z,6.7
2017-08-14T11:04:05.965Z,6.7
2017-08-14T11:05:08.818Z,6.7
2017-08-14T11:06:11.328Z,6.7
2017-08-14T11:07:14.188Z,6.7
2017-08-14T11:08:16.707Z,6.7
2017-08-14T11:09:19.564Z,6.7
2017-08-14T11:10:22.081Z,6.7
2017-08-14T11:11:24.591Z,6.7
2017-08-14T11:12:27.423Z,6.7
2017-08-14T11:13:29.954Z,6.7
2017-08-14T11:14:32.813Z,6.6
2017-08-14T11:15:35.315Z,6.7
2017-08-14T11:16:38.213Z,6.7
2017-08-14T11:17:41.404Z,6.7
2017-08-14T11:18:43.911Z,6.7
2017-08-14T11:19:46.420Z,6.7
2017-08-14T11:20:49.273Z,6.7
2017-08-14T11:21:51.792Z,6.7
2017-08-14T11:22:54.309Z,6.7
2017-08-14T11:23:56.802Z,6.7
2017-08-14T11:24:59.312Z,6.7
2017-08-14T11:26:02.505Z,6.7
2017-08-14T11:27:05.024Z,6.7
2017-08-14T11:28:07.895Z,6.7
2017-08-14T11:29:10.750Z,6.8
2017-08-14T11:30:13.598Z,6.7
2017-08-14T11:31:16.426Z,6.7
2017-08-14T11:32:19.611Z,6.7
2017-08-14T11:33:22.135Z,6.7
2017-08-14T11:34:24.629Z,6.7
2017-08-14T11:35:27.159Z,6.7
2017-08-14T11:36:30.020Z,6.7
2017-08-14T11:37:32.525Z,6.7
2017-08-14T11:38:35.384Z,6.7
2017-08-14T11:39:37.895Z,6.7
2017-08-14T11:40:40.721Z,6.7
2017-08-14T11:41:43.234Z,6.7
2017-08-14T11:42:46.095Z,6.7
2017-08-14T11:43:48.601Z,6.6
2017-08-14T11:44:51.450Z,6.7
2017-08-14T11:45:54.997Z,6.7
2017-08-14T11:46:57.873Z,6.7
2017-08-14T11:48:00.408Z,6.7
2017-08-14T11:49:02.913Z,6.7
2017-08-14T11:50:05.445Z,6.7
2017-08-14T11:51:08.658Z,6.7
2017-08-14T11:52:11.861Z,6.7
2017-08-14T11:53:14.730Z,6.7
2017-08-14T11:54:17.257Z,6.7
2017-08-14T11:55:20.104Z,6.7
2017-08-14T11:56:22.625Z,6.7
2017-08-14T11:57:25.172Z,6.8
2017-08-14T11:58:27.691Z,6.7
2017-08-14T11:59:30.211Z,6.8
2017-08-14T12:00:32.730Z,6.8
2017-08-14T12:01:35.572Z,6.8
2017-08-14T12:02:38.075Z,6.8
2017-08-14T12:03:40.923Z,6.8
2017-08-14T12:04:43.451Z,6.7
2017-08-14T12:05:45.953Z,6.8
2017-08-14T12:06:49.154Z,6.8
2017-08-14T12:07:52.005Z,6.9
2017-08-14T12:08:54.859Z,6.8
2017-08-14T12:09:57.714Z,6.8
2017-08-14T12:11:00.569Z,6.8
2017-08-14T12:12:03.405Z,6.8
2017-08-14T12:13:05.913Z,6.8
2017-08-14T12:14:08.426Z,6.8
2017-08-14T12:15:11.275Z,6.8
2017-08-14T12:16:13.773Z,6.8
2017-08-14T12:17:16.982Z,6.8
2017-08-14T12:18:19.502Z,6.8
2017-08-14T12:19:22.024Z,6.8
2017-08-14T12:20:24.532Z,6.8
2017-08-14T12:21:27.036Z,6.8
2017-08-14T12:22:29.533Z,6.8
2017-08-14T12:23:32.376Z,6.7
2017-08-14T12:24:34.890Z,6.7
2017-08-14T12:25:37.414Z,6.7
2017-08-14T12:26:40.250Z,6.7
2017-08-14T12:27:42.777Z,6.7
2017-08-14T12:28:45.276Z,6.7
2017-08-14T12:29:47.781Z,6.8
2017-08-14T12:30:50.973Z,6.8
2017-08-14T12:31:53.463Z,6.7
2017-08-14T12:32:56.322Z,6.7
2017-08-14T12:33:58.847Z,6.7
2017-08-14T12:35:01.368Z,6.7
2017-08-14T12:36:04.565Z,6.7
2017-08-14T12:37:07.754Z,6.7
2017-08-14T12:38:10.291Z,6.8
2017-08-14T12:39:12.806Z,6.8
2017-08-14T12:40:15.972Z,6.8
2017-08-14T12:41:18.485Z,6.7
2017-08-14T12:42:21.000Z,6.8
2017-08-14T12:43:23.847Z,6.8
2017-08-14T12:44:26.694Z,6.8
2017-08-14T12:45:29.193Z,6.8
2017-08-14T12:46:31.701Z,6.8
2017-08-14T12:47:34.209Z,6.8
2017-08-14T12:48:36.731Z,6.8
2017-08-14T12:49:39.259Z,6.8
2017-08-14T12:50:41.779Z,6.8
2017-08-14T12:51:44.298Z,6.8
2017-08-14T12:52:46.807Z,6.9
2017-08-14T12:53:49.328Z,6.8
2017-08-14T12:54:52.169Z,6.8
2017-08-14T12:55:55.016Z,6.8
2017-08-14T12:56:57.872Z,6.8
2017-08-14T12:58:00.735Z,6.8
2017-08-14T12:59:03.259Z,6.8
2017-08-14T13:00:06.502Z,6.8
2017-08-14T13:01:09.687Z,6.8
2017-08-14T13:02:12.199Z,6.8
2017-08-14T13:03:15.077Z,6.8
2017-08-14T13:04:17.598Z,6.8
2017-08-14T13:05:20.108Z,6.8
2017-08-14T13:06:22.939Z,6.8
2017-08-14T13:07:25.445Z,6.8
2017-08-14T13:08:27.972Z,6.8
2017-08-14T13:09:30.482Z,6.8
2017-08-14T13:10:33.005Z,6.8
2017-08-14T13:11:35.838Z,6.9
2017-08-14T13:12:38.701Z,6.8
2017-08-14T13:13:41.931Z,6.8
2017-08-14T13:14:44.439Z,6.8
2017-08-14T13:15:47.425Z,6.8
2017-08-14T13:16:49.953Z,6.8
2017-08-14T13:17:52.796Z,6.8
2017-08-14T13:18:55.341Z,6.8
2017-08-14T13:19:57.852Z,6.8
2017-08-14T13:21:00.692Z,6.8
2017-08-14T13:22:03.898Z,6.8
2017-08-14T13:23:06.432Z,6.8
2017-08-14T13:24:09.326Z,6.8
2017-08-14T13:25:11.897Z,6.8
2017-08-14T13:26:14.730Z,6.8
2017-08-14T13:27:17.237Z,6.8
2017-08-14T13:28:20.441Z,6.8
2017-08-14T13:29:22.943Z,6.8
2017-08-14T13:30:25.813Z,6.8
2017-08-14T13:31:28.336Z,6.8
2017-08-14T13:32:30.843Z,6.8
2017-08-14T13:33:33.688Z,6.8
2017-08-14T13:34:36.891Z,6.8
2017-08-14T13:35:39.784Z,6.8
2017-08-14T13:36:42.293Z,6.8
2017-08-14T13:37:44.790Z,6.8
2017-08-14T13:38:47.305Z,6.8
2017-08-14T13:39:49.818Z,6.8
2017-08-14T13:40:53.004Z,6.8
2017-08-14T13:41:55.864Z,6.8
2017-08-14T13:42:58.381Z,6.8
2017-08-14T13:44:01.235Z,6.8
2017-08-14T13:45:04.117Z,6.8
2017-08-14T13:46:06.630Z,6.8
2017-08-14T13:47:09.150Z,6.8
2017-08-14T13:48:11.688Z,6.8
2017-08-14T13:49:14.197Z,6.8
2017-08-14T13:50:17.046Z,6.7
2017-08-14T13:51:19.587Z,6.8
2017-08-14T13:52:22.089Z,6.8
2017-08-14T13:53:24.948Z,6.8
2017-08-14T13:54:27.815Z,6.8
2017-08-14T13:55:30.278Z,6.8
2017-08-14T13:56:32.753Z,6.8
2017-08-14T13:57:35.222Z,6.8
2017-08-14T13:58:38.040Z,6.8
2017-08-14T13:59:40.526Z,6.7
2017-08-14T14:00:43.021Z,6.7
2017-08-14T14:01:45.881Z,6.7
2017-08-14T14:02:49.054Z,6.8
2017-08-14T14:03:51.563Z,6.7
2017-08-14T14:04:54.049Z,6.8
2017-08-14T14:05:56.544Z,6.8
2017-08-14T14:06:59.017Z,6.8
2017-08-14T14:08:01.830Z,6.7
2017-08-14T14:09:04.675Z,6.8
2017-08-14T14:10:07.875Z,6.8
2017-08-14T14:11:11.034Z,6.7
2017-08-14T14:12:13.871Z,6.8
2017-08-14T14:13:16.350Z,6.8
2017-08-14T14:14:18.831Z,6.8
2017-08-14T14:15:21.667Z,6.8
2017-08-14T14:16:24.498Z,6.8
2017-08-14T14:17:27.324Z,6.8
2017-08-14T14:18:29.801Z,6.7
2017-08-14T14:19:32.290Z,6.8
2017-08-14T14:20:34.757Z,6.8
2017-08-14T14:21:37.244Z,6.8
2017-08-14T14:22:40.052Z,6.8
2017-08-14T14:23:42.524Z,6.8
2017-08-14T14:24:45.358Z,6.8